Time;durP1;ratioP1;P1;durP2;ratioP2;P2;SDS_P1;SDS_P2;PMS_P1;PMS_P2;Temp;Humidity;BMP_temperature;BMP_pressure;BME280_temperature;BME280_humidity;BME280_pressure;Samples;Min_cycle;Max_cycle;Signal;HPM_P1;HPM_P2
2023/05/21 00:01:41;;;;;;;0.52;0.47;;;13.40;99.90;;;;;;5093160;28;20028;-81
2023/05/21 00:04:07;;;;;;;0.08;0.08;;;13.50;99.90;;;;;;5081345;28;20056;-81
2023/05/21 00:06:35;;;;;;;0.35;0.35;;;13.50;99.90;;;;;;5079628;28;20040;-79
2023/05/21 00:09:02;;;;;;;0.03;0.03;;;13.50;99.90;;;;;;5079715;28;20044;-80
2023/05/21 00:11:28;;;;;;;0.20;0.20;;;13.50;99.90;;;;;;5082184;28;20067;-80
2023/05/21 00:13:54;;;;;;;0.13;0.13;;;13.50;99.90;;;;;;5085186;28;20072;-80
2023/05/21 00:16:21;;;;;;;0.80;0.43;;;13.50;99.90;;;;;;5086302;28;20036;-80
2023/05/21 00:18:48;;;;;;;0.30;0.30;;;13.40;99.90;;;;;;5086433;28;20053;-80
2023/05/21 00:21:16;;;;;;;0.43;0.30;;;13.40;99.90;;;;;;5086018;28;20092;-79
2023/05/21 00:23:42;;;;;;;0.00;0.00;;;13.40;99.90;;;;;;5083305;28;20460;-80
2023/05/21 00:26:08;;;;;;;0.20;0.20;;;13.30;99.90;;;;;;5083404;28;20040;-80
2023/05/21 00:28:34;;;;;;;0.00;0.00;;;13.40;1.00;;;;;;5075909;28;20059;-80
2023/05/21 00:31:00;;;;;;;0.52;0.50;;;13.40;1.00;;;;;;5076735;28;20051;-81
2023/05/21 00:33:27;;;;;;;0.10;0.10;;;13.40;1.00;;;;;;5073789;28;20045;-80
2023/05/21 00:35:53;;;;;;;0.05;0.05;;;13.40;10.30;;;;;;5075137;28;20063;-80
2023/05/21 00:38:20;;;;;;;0.52;0.52;;;14.40;1.00;;;;;;5073682;28;20100;-79
2023/05/21 00:40:47;;;;;;;0.13;0.10;;;13.40;1.00;;;;;;5074362;28;20052;-81
2023/05/21 00:43:13;;;;;;;0.00;0.00;;;13.40;74.80;;;;;;5074516;28;20040;-80
2023/05/21 00:45:43;;;;;;;0.00;0.00;;;13.40;41.50;;;;;;5073758;28;20044;-79
2023/05/21 00:48:09;;;;;;;0.00;0.00;;;13.40;1.00;;;;;;5073410;28;20049;-82
2023/05/21 00:50:38;;;;;;;0.13;0.13;;;13.30;1.00;;;;;;5074508;28;20407;-81
2023/05/21 00:53:08;;;;;;;0.05;0.05;;;13.30;99.90;;;;;;5071559;28;20057;-80
2023/05/21 00:55:37;;;;;;;0.30;0.30;;;13.30;99.90;;;;;;5073343;28;20084;-80
2023/05/21 00:58:03;;;;;;;0.22;0.22;;;13.30;99.90;;;;;;5071969;28;20036;-79
2023/05/21 01:00:34;;;;;;;1.05;0.13;;;13.20;99.90;;;;;;5071619;28;20064;-80
2023/05/21 01:03:00;;;;;;;0.13;0.13;;;13.20;99.90;;;;;;5073188;28;20052;-80
2023/05/21 01:05:27;;;;;;;0.10;0.10;;;13.20;99.90;;;;;;5074482;28;20800;-80
2023/05/21 01:07:55;;;;;;;0.32;0.32;;;13.20;99.90;;;;;;5073699;28;20037;-81
2023/05/21 01:10:22;;;;;;;4.20;0.32;;;13.20;99.90;;;;;;5073054;28;20049;-80
2023/05/21 01:12:48;;;;;;;0.47;0.40;;;13.20;99.90;;;;;;5071877;28;20502;-80
2023/05/21 01:15:14;;;;;;;1.25;0.70;;;13.40;99.90;;;;;;5072655;28;20044;-80
2023/05/21 01:17:40;;;;;;;0.00;0.00;;;13.70;1.00;;;;;;5073398;28;20114;-81
2023/05/21 01:20:09;;;;;;;0.38;0.30;;;13.20;1.00;;;;;;5072690;28;20048;-80
2023/05/21 01:22:42;;;;;;;3.92;0.52;;;13.20;99.90;;;;;;5072421;28;20069;-79
2023/05/21 01:25:09;;;;;;;0.30;0.30;;;13.20;99.90;;;;;;5073365;28;20375;-80
2023/05/21 01:27:35;;;;;;;0.00;0.00;;;13.20;99.90;;;;;;5073504;28;20041;-80
2023/05/21 01:30:00;;;;;;;3.47;0.50;;;13.20;1.00;;;;;;5073496;28;20110;-81
2023/05/21 01:32:46;;;;;;;0.00;0.00;;;13.80;99.90;;;;;;5072455;28;20051;-81
2023/05/21 01:35:25;;;;;;;0.38;0.30;;;13.20;99.90;;;;;;5072309;28;20127;-80
2023/05/21 01:38:10;;;;;;;0.00;0.00;;;13.20;1.00;;;;;;5073799;28;20066;-81
2023/05/21 01:40:57;;;;;;;0.32;0.20;;;13.20;1.00;;;;;;5072931;28;20048;-80
2023/05/21 01:43:24;;;;;;;;;;;13.40;79.90;;;;;;5073751;28;20111;-81
2023/05/21 01:45:53;;;;;;;0.08;0.08;;;12.90;99.90;;;;;;5054145;28;19924;-80
2023/05/21 01:48:19;;;;;;;0.10;0.10;;;12.70;95.40;;;;;;5071033;28;20133;-80
2023/05/21 01:50:46;;;;;;;0.00;0.00;;;12.50;99.90;;;;;;5072054;28;20040;-80
2023/05/21 01:53:11;;;;;;;0.32;0.30;;;12.30;99.90;;;;;;5055090;28;20045;-80
2023/05/21 01:55:40;;;;;;;0.10;0.10;;;12.20;99.90;;;;;;5072112;28;20143;-79
2023/05/21 01:58:07;;;;;;;0.20;0.13;;;12.10;99.90;;;;;;5071704;28;20063;-80
2023/05/21 02:00:33;;;;;;;0.70;0.45;;;12.00;99.90;;;;;;5072242;28;20060;-80
2023/05/21 02:02:59;;;;;;;0.57;0.45;;;12.10;99.90;;;;;;5073319;28;20044;-81
2023/05/21 02:05:25;;;;;;;3.45;1.65;;;12.10;99.90;;;;;;5074216;28;20573;-81
2023/05/21 02:07:51;;;;;;;1.65;0.80;;;12.20;99.90;;;;;;5073447;28;20048;-80
2023/05/21 02:10:17;;;;;;;0.93;0.60;;;12.30;99.90;;;;;;5071930;28;20048;-79
2023/05/21 02:12:43;;;;;;;0.00;0.00;;;12.50;1.00;;;;;;5072105;28;20220;-82
2023/05/21 02:15:09;;;;;;;0.00;0.00;;;12.50;99.90;;;;;;5071642;28;20127;-80
2023/05/21 02:17:37;;;;;;;0.32;0.32;;;12.60;99.90;;;;;;5074151;28;20040;-81
2023/05/21 02:20:21;;;;;;;0.22;0.20;;;12.60;51.30;;;;;;5077491;28;20044;-81
2023/05/21 02:22:48;;;;;;;0.20;0.20;;;12.70;99.90;;;;;;5077090;28;20071;-80
2023/05/21 02:25:15;;;;;;;0.17;0.17;;;12.70;1.60;;;;;;5077644;28;20510;-81
2023/05/21 02:27:41;;;;;;;1.73;0.80;;;12.70;99.90;;;;;;5075720;28;20507;-80
2023/05/21 02:30:12;;;;;;;0.85;0.80;;;12.70;99.90;;;;;;5075807;28;20430;-79
2023/05/21 02:32:41;;;;;;;0.10;0.10;;;12.70;99.90;;;;;;5077967;28;20044;-80
2023/05/21 02:35:08;;;;;;;0.47;0.47;;;12.90;99.90;;;;;;5074521;28;20057;-79
2023/05/21 02:37:35;;;;;;;0.32;0.32;;;12.80;99.90;;;;;;5075513;28;20084;-79
2023/05/21 02:40:04;;;;;;;1.00;0.88;;;12.80;99.90;;;;;;5074566;28;20058;-79
2023/05/21 02:42:31;;;;;;;2.53;0.90;;;12.90;99.90;;;;;;5076152;28;20040;-79
2023/05/21 02:44:57;;;;;;;1.85;1.35;;;12.80;77.40;;;;;;5074956;28;20051;-79
2023/05/21 02:47:24;;;;;;;0.55;0.52;;;12.80;99.90;;;;;;5074806;28;20048;-80
2023/05/21 02:49:50;;;;;;;1.77;0.75;;;13.90;79.50;;;;;;5042278;28;20482;-81
2023/05/21 02:52:17;;;;;;;0.05;0.05;;;12.80;95.90;;;;;;5076246;28;20055;-80
2023/05/21 02:54:43;;;;;;;1.10;0.43;;;12.80;36.70;;;;;;5077113;28;20146;-80
2023/05/21 02:57:09;;;;;;;0.25;0.20;;;12.80;1.00;;;;;;5075366;28;20055;-81
2023/05/21 02:59:35;;;;;;;0.45;0.45;;;12.80;1.00;;;;;;5074265;28;20044;-78
2023/05/21 03:02:01;;;;;;;2.72;0.65;;;12.80;99.90;;;;;;5074954;28;20517;-81
2023/05/21 03:04:27;;;;;;;0.93;0.82;;;12.80;99.90;;;;;;5076150;28;20394;-80
2023/05/21 03:06:54;;;;;;;1.25;0.88;;;12.80;99.90;;;;;;5076544;28;20044;-80
2023/05/21 03:09:20;;;;;;;1.52;1.42;;;12.80;1.00;;;;;;5073728;28;20115;-80
2023/05/21 03:11:46;;;;;;;0.17;0.17;;;12.80;99.90;;;;;;5073887;28;20123;-82
2023/05/21 03:14:13;;;;;;;0.08;0.08;;;13.60;1.00;;;;;;5073835;28;20045;-80
2023/05/21 03:16:40;;;;;;;0.98;0.77;;;12.90;99.90;;;;;;5074664;28;20058;-80
2023/05/21 03:19:07;;;;;;;3.15;0.73;;;12.70;1.00;;;;;;5073546;28;20071;-79
2023/05/21 03:21:33;;;;;;;0.43;0.35;;;12.80;99.90;;;;;;5072381;28;20056;-80
2023/05/21 03:23:59;;;;;;;0.50;0.50;;;12.70;1.00;;;;;;5073930;28;20044;-80
2023/05/21 03:26:28;;;;;;;2.75;2.30;;;12.70;99.90;;;;;;5074309;28;20044;-80
2023/05/21 03:28:55;;;;;;;0.30;0.30;;;12.70;99.90;;;;;;5075887;28;20085;-80
2023/05/21 03:31:21;;;;;;;0.10;0.10;;;12.70;1.00;;;;;;5093104;28;20092;-80
2023/05/21 03:33:47;;;;;;;0.38;0.28;;;12.70;1.00;;;;;;5094194;28;20035;-80
2023/05/21 03:36:12;;;;;;;6.63;1.00;;;12.70;1.00;;;;;;5094329;28;20037;-80
2023/05/21 03:38:38;;;;;;;0.75;0.40;;;12.70;47.40;;;;;;5093980;28;20075;-80
2023/05/21 03:41:04;;;;;;;0.40;0.30;;;12.70;97.60;;;;;;5094164;28;20040;-80
2023/05/21 03:43:30;;;;;;;0.10;0.10;;;12.70;81.10;;;;;;5093798;28;20051;-79
2023/05/21 03:45:55;;;;;;;0.60;0.60;;;12.60;99.90;;;;;;5093608;28;20045;-81
2023/05/21 03:48:21;;;;;;;2.90;2.03;;;12.60;99.90;;;;;;5085431;28;20043;-80
2023/05/21 03:50:47;;;;;;;0.10;0.10;;;12.70;99.90;;;;;;5075954;28;20052;-79
2023/05/21 03:53:13;;;;;;;0.10;0.10;;;13.00;99.90;;;;;;5074658;28;20044;-79
2023/05/21 03:55:39;;;;;;;0.25;0.22;;;12.70;99.90;;;;;;5075425;28;20052;-80
2023/05/21 03:58:04;;;;;;;0.32;0.22;;;12.70;99.90;;;;;;5073922;28;20051;-79
2023/05/21 04:00:33;;;;;;;3.50;1.95;;;12.70;99.90;;;;;;5055372;28;20048;-79
2023/05/21 04:02:59;;;;;;;0.85;0.65;;;12.70;99.90;;;;;;5074311;28;20054;-80
2023/05/21 04:05:25;;;;;;;0.28;0.20;;;13.00;99.90;;;;;;5072427;28;20502;-80
2023/05/21 04:07:51;;;;;;;0.00;0.00;;;12.70;99.90;;;;;;5073222;28;20062;-79
2023/05/21 04:10:17;;;;;;;2.72;0.65;;;12.70;99.90;;;;;;5073081;28;20132;-82
2023/05/21 04:12:42;;;;;;;1.20;0.82;;;12.70;99.90;;;;;;5075437;28;20076;-81
2023/05/21 04:15:08;;;;;;;0.63;0.63;;;12.70;99.90;;;;;;5072791;28;20043;-81
2023/05/21 04:17:34;;;;;;;0.45;0.35;;;12.80;99.90;;;;;;5075363;28;20040;-79
2023/05/21 04:20:00;;;;;;;1.25;0.75;;;12.80;99.90;;;;;;5073467;28;20048;-80
2023/05/21 04:22:25;;;;;;;0.20;0.20;;;12.80;99.90;;;;;;5075469;28;20349;-80
2023/05/21 04:24:54;;;;;;;0.20;0.13;;;12.80;99.90;;;;;;5074248;28;20055;-79
2023/05/21 04:27:24;;;;;;;0.20;0.20;;;11.80;99.90;;;;;;5077189;28;20044;-80
2023/05/21 04:29:49;;;;;;;0.35;0.28;;;13.90;99.90;;;;;;5077192;28;20063;-80
2023/05/21 04:32:16;;;;;;;1.20;0.93;;;12.90;35.70;;;;;;5073407;28;20114;-79
2023/05/21 04:34:43;;;;;;;2.67;0.98;;;13.00;1.00;;;;;;5073331;28;20049;-79
2023/05/21 04:37:09;;;;;;;0.10;0.10;;;13.00;1.00;;;;;;5072903;28;20072;-80
2023/05/21 04:39:35;;;;;;;0.22;0.10;;;13.00;99.90;;;;;;5074031;28;20058;-79
2023/05/21 04:42:02;;;;;;;0.25;0.10;;;13.00;99.90;;;;;;5071398;28;20096;-79
2023/05/21 04:44:28;;;;;;;0.32;0.32;;;13.00;99.90;;;;;;5073176;28;20510;-79
2023/05/21 04:46:56;;;;;;;0.82;0.52;;;13.00;99.90;;;;;;5071569;28;20100;-78
2023/05/21 04:49:21;;;;;;;1.65;1.00;;;13.10;62.20;;;;;;5072274;28;20052;-80
2023/05/21 04:51:48;;;;;;;0.50;0.50;;;13.20;1.00;;;;;;5074158;28;20677;-79
2023/05/21 04:54:14;;;;;;;0.00;0.00;;;13.30;99.90;;;;;;5075347;28;20119;-80
2023/05/21 04:56:40;;;;;;;0.77;0.47;;;13.30;99.90;;;;;;5071914;28;20052;-79
2023/05/21 04:59:05;;;;;;;0.20;0.20;;;13.60;99.90;;;;;;5072124;28;20052;-79
2023/05/21 05:01:33;;;;;;;0.32;0.15;;;13.90;99.90;;;;;;5075329;28;20108;-79
2023/05/21 05:04:00;;;;;;;0.75;0.50;;;14.00;1.00;;;;;;5073128;28;20499;-80
2023/05/21 05:06:25;;;;;;;0.15;0.15;;;14.10;1.00;;;;;;5072914;28;20045;-80
2023/05/21 05:08:51;;;;;;;1.35;1.00;;;14.00;99.90;;;;;;5075557;28;20076;-79
2023/05/21 05:11:17;;;;;;;0.20;0.20;;;14.00;99.90;;;;;;5073909;28;20104;-79
2023/05/21 05:13:42;;;;;;;0.30;0.17;;;14.10;99.90;;;;;;5073728;28;20045;-80
2023/05/21 05:16:08;;;;;;;1.95;0.38;;;14.10;99.90;;;;;;5074842;28;20056;-78
2023/05/21 05:18:35;;;;;;;0.00;0.00;;;14.00;99.90;;;;;;5073740;28;20048;-79
2023/05/21 05:21:01;;;;;;;0.00;0.00;;;14.10;1.00;;;;;;5072350;28;20088;-81
2023/05/21 05:23:26;;;;;;;1.48;1.08;;;14.20;1.00;;;;;;5072127;28;20051;-81
2023/05/21 05:25:52;;;;;;;0.30;0.30;;;14.30;99.90;;;;;;5072816;28;20048;-79
2023/05/21 05:28:17;;;;;;;1.55;0.65;;;14.40;99.90;;;;;;5073660;28;20040;-79
2023/05/21 05:30:43;;;;;;;5.03;0.20;;;15.20;99.90;;;;;;5074973;28;20517;-80
2023/05/21 05:33:10;;;;;;;0.25;0.17;;;14.40;99.90;;;;;;5074016;28;20045;-80
2023/05/21 05:35:36;;;;;;;2.10;1.20;;;14.30;99.90;;;;;;5074524;28;20052;-80
2023/05/21 05:38:01;;;;;;;0.20;0.20;;;14.30;99.90;;;;;;5075296;28;20227;-79
2023/05/21 05:40:27;;;;;;;0.38;0.38;;;14.40;99.90;;;;;;5075585;28;20133;-80
2023/05/21 05:42:53;;;;;;;0.38;0.38;;;14.40;99.90;;;;;;5073679;28;20475;-79
2023/05/21 05:45:19;;;;;;;0.90;0.85;;;14.50;99.90;;;;;;5075056;28;20063;-80
2023/05/21 05:47:45;;;;;;;0.65;0.52;;;14.60;99.90;;;;;;5075177;28;20044;-80
2023/05/21 05:50:11;;;;;;;0.25;0.25;;;14.70;99.90;;;;;;5073134;28;20097;-80
2023/05/21 05:52:36;;;;;;;0.40;0.15;;;14.60;99.90;;;;;;5072862;28;20076;-79
2023/05/21 05:55:02;;;;;;;0.20;0.10;;;14.60;99.90;;;;;;5074141;28;20502;-80
2023/05/21 05:57:28;;;;;;;0.08;0.05;;;14.60;99.90;;;;;;5058505;28;20044;-80
2023/05/21 05:59:54;;;;;;;0.20;0.20;;;14.70;99.90;;;;;;5072977;28;20448;-80
2023/05/21 06:02:33;;;;;;;0.93;0.75;;;14.80;99.90;;;;;;5091921;27;20806;-80
2023/05/21 06:04:58;;;;;;;1.23;0.30;;;15.00;26.70;;;;;;5091010;28;20056;-80
2023/05/21 06:07:24;;;;;;;0.17;0.17;;;15.00;1.00;;;;;;5108598;28;20268;-80
2023/05/21 06:09:50;;;;;;;0.15;0.15;;;15.20;1.00;;;;;;5093100;28;20048;-80
2023/05/21 06:12:15;;;;;;;0.20;0.20;;;15.50;1.00;;;;;;5091967;28;20048;-80
2023/05/21 06:14:42;;;;;;;0.08;0.08;;;15.30;1.00;;;;;;5092291;28;20040;-80
2023/05/21 06:17:07;;;;;;;0.08;0.08;;;15.20;99.90;;;;;;5090218;28;20052;-79
2023/05/21 06:19:33;;;;;;;0.15;0.15;;;15.30;1.00;;;;;;5090809;28;20515;-80
2023/05/21 06:21:59;;;;;;;0.03;0.03;;;15.40;99.90;;;;;;5091889;28;20037;-80
2023/05/21 06:24:25;;;;;;;0.25;0.25;;;15.40;1.00;;;;;;5072393;28;20076;-81
2023/05/21 06:26:50;;;;;;;0.65;0.32;;;16.40;99.90;;;;;;5090657;28;20054;-80
2023/05/21 06:29:16;;;;;;;0.75;0.50;;;15.90;99.90;;;;;;5080365;28;20072;-81
2023/05/21 06:31:43;;;;;;;0.43;0.22;;;16.20;99.90;;;;;;5070282;28;20456;-80
2023/05/21 06:34:10;;;;;;;0.05;0.05;;;16.30;99.90;;;;;;5071472;28;20045;-79
2023/05/21 06:36:36;;;;;;;0.57;0.28;;;16.20;99.90;;;;;;5080119;28;20048;-81
2023/05/21 06:39:02;;;;;;;0.55;0.30;;;16.00;99.90;;;;;;5089504;28;20040;-79
2023/05/21 06:41:28;;;;;;;0.88;0.55;;;16.00;99.90;;;;;;5089476;28;20119;-79
2023/05/21 06:43:53;;;;;;;0.80;0.73;;;15.90;99.90;;;;;;5090421;28;20609;-81
2023/05/21 06:46:19;;;;;;;0.60;0.60;;;15.90;99.90;;;;;;5089875;28;20046;-80
2023/05/21 06:48:45;;;;;;;0.00;0.00;;;16.00;99.90;;;;;;5088295;28;20080;-80
2023/05/21 06:51:11;;;;;;;0.30;0.30;;;16.00;99.90;;;;;;5088450;28;20117;-80
2023/05/21 06:53:37;;;;;;;0.43;0.32;;;16.00;99.90;;;;;;5090649;28;20080;-80
2023/05/21 06:56:03;;;;;;;1.63;0.88;;;16.00;99.90;;;;;;5089007;28;20051;-78
2023/05/21 06:58:30;;;;;;;0.13;0.10;;;16.00;99.90;;;;;;5089083;28;20106;-80
2023/05/21 07:01:00;;;;;;;0.10;0.10;;;16.10;99.90;;;;;;5103115;28;20116;-78
2023/05/21 07:03:26;;;;;;;0.45;0.30;;;16.10;99.90;;;;;;5108917;28;20036;-79
2023/05/21 07:05:55;;;;;;;0.75;0.55;;;16.20;99.90;;;;;;5108293;28;20060;-79
2023/05/21 07:08:20;;;;;;;0.00;0.00;;;16.30;99.90;;;;;;5107306;28;20044;-80
2023/05/21 07:10:46;;;;;;;0.25;0.22;;;16.90;99.90;;;;;;5106306;28;20098;-80
2023/05/21 07:13:12;;;;;;;0.32;0.30;;;16.40;99.90;;;;;;5098173;28;20028;-80
2023/05/21 07:15:37;;;;;;;1.65;0.98;;;16.50;99.90;;;;;;5093923;28;20071;-80
2023/05/21 07:18:03;;;;;;;0.00;0.00;;;16.70;99.90;;;;;;5092414;28;20051;-80
2023/05/21 07:20:28;;;;;;;0.17;0.17;;;16.70;99.90;;;;;;5077241;28;20124;-79
2023/05/21 07:22:54;;;;;;;0.28;0.25;;;16.90;99.90;;;;;;5069412;28;20402;-79
2023/05/21 07:25:20;;;;;;;0.52;0.30;;;17.00;99.90;;;;;;5067621;28;20072;-79
2023/05/21 07:27:45;;;;;;;0.20;0.20;;;17.10;99.90;;;;;;5068901;28;20044;-79
2023/05/21 07:30:13;;;;;;;0.00;0.00;;;17.30;99.90;;;;;;5070116;28;20105;-78
2023/05/21 07:32:38;;;;;;;0.98;0.77;;;17.20;99.90;;;;;;5068791;28;20052;-79
2023/05/21 07:35:05;;;;;;;0.50;0.38;;;17.20;99.90;;;;;;5070154;28;20064;-80
2023/05/21 07:37:31;;;;;;;0.05;0.05;;;17.20;99.90;;;;;;5069290;28;20052;-79
2023/05/21 07:39:57;;;;;;;0.30;0.30;;;17.30;99.90;;;;;;5068756;28;20098;-79
2023/05/21 07:42:23;;;;;;;0.10;0.10;;;17.40;99.90;;;;;;5069267;28;20049;-79
2023/05/21 07:44:49;;;;;;;0.85;0.43;;;17.60;99.90;;;;;;5072483;28;20062;-80
2023/05/21 07:47:15;;;;;;;0.30;0.30;;;17.60;99.90;;;;;;5070324;28;20045;-79
2023/05/21 07:49:40;;;;;;;0.50;0.43;;;17.50;99.90;;;;;;5068382;28;20044;-79
2023/05/21 07:52:06;;;;;;;0.10;0.10;;;17.60;99.90;;;;;;5068582;28;20048;-79
2023/05/21 07:54:32;;;;;;;0.60;0.57;;;17.70;99.90;;;;;;5068200;28;20041;-78
2023/05/21 07:56:57;;;;;;;0.43;0.38;;;17.80;99.90;;;;;;5066898;28;20071;-79
2023/05/21 07:59:24;;;;;;;0.20;0.13;;;17.80;99.90;;;;;;5050122;28;20048;-79
2023/05/21 08:01:50;;;;;;;0.47;0.40;;;18.10;99.90;;;;;;5068148;28;20074;-79
2023/05/21 08:04:16;;;;;;;0.45;0.35;;;18.00;99.90;;;;;;5068355;28;20491;-79
2023/05/21 08:06:41;;;;;;;0.60;0.40;;;18.40;99.90;;;;;;5067957;28;20048;-79
2023/05/21 08:09:07;;;;;;;0.55;0.50;;;18.60;99.90;;;;;;5067751;28;20044;-79
2023/05/21 08:11:33;;;;;;;0.35;0.32;;;18.60;99.90;;;;;;5068218;28;21047;-80
2023/05/21 08:13:58;;;;;;;0.03;0.03;;;19.70;99.90;;;;;;5068177;28;20441;-79
2023/05/21 08:16:24;;;;;;;0.28;0.28;;;19.00;99.90;;;;;;5067957;28;20505;-79
2023/05/21 08:18:50;;;;;;;0.57;0.47;;;19.00;99.90;;;;;;5067231;28;20410;-78
2023/05/21 08:21:16;;;;;;;0.20;0.10;;;18.90;99.90;;;;;;5066948;28;20447;-78
2023/05/21 08:23:42;;;;;;;0.45;0.45;;;18.80;99.90;;;;;;5067030;28;20045;-79
2023/05/21 08:26:08;;;;;;;0.28;0.28;;;19.20;99.90;;;;;;5067258;28;20441;-79
2023/05/21 08:28:37;;;;;;;0.50;0.35;;;19.10;99.90;;;;;;5071031;28;20045;-79
2023/05/21 08:31:02;;;;;;;1.65;0.65;;;19.40;99.90;;;;;;5069344;28;20044;-78
2023/05/21 08:33:28;;;;;;;0.20;0.17;;;19.70;99.90;;;;;;5066165;28;20097;-78
2023/05/21 08:35:53;;;;;;;0.65;0.50;;;19.80;99.90;;;;;;5066654;28;20036;-79
2023/05/21 08:38:19;;;;;;;0.65;0.50;;;19.70;99.90;;;;;;5067884;28;20112;-79
2023/05/21 08:40:46;;;;;;;0.40;0.40;;;19.70;99.90;;;;;;5066138;28;20040;-78
2023/05/21 08:43:15;;;;;;;1.52;0.77;;;19.70;99.90;;;;;;5067320;28;20048;-79
2023/05/21 08:45:46;;;;;;;2.22;1.05;;;19.70;99.90;;;;;;5067427;28;20056;-79
2023/05/21 08:48:16;;;;;;;1.60;0.55;;;20.00;99.90;;;;;;5065744;28;20045;-79
2023/05/21 08:50:42;;;;;;;0.82;0.45;;;20.10;99.90;;;;;;5067082;28;20512;-79
2023/05/21 08:53:08;;;;;;;0.20;0.17;;;20.30;99.90;;;;;;5067551;28;20123;-79
2023/05/21 08:55:35;;;;;;;0.68;0.28;;;20.60;99.90;;;;;;5066851;28;20042;-79
2023/05/21 08:58:03;;;;;;;0.10;0.10;;;20.90;99.90;;;;;;5067066;28;20098;-78
2023/05/21 09:00:29;;;;;;;0.10;0.10;;;21.00;99.90;;;;;;5065819;28;20051;-78
2023/05/21 09:02:55;;;;;;;0.57;0.52;;;21.30;99.90;;;;;;5066593;28;20052;-79
2023/05/21 09:05:22;;;;;;;1.48;0.45;;;21.60;99.90;;;;;;5065764;28;20205;-78
2023/05/21 09:08:12;;;;;;;1.35;0.75;;;21.80;99.90;;;;;;5068750;28;20071;-79
2023/05/21 09:10:41;;;;;;;1.42;0.73;;;21.80;99.90;;;;;;5070300;28;20040;-79
2023/05/21 09:13:09;;;;;;;0.28;0.20;;;22.40;99.90;;;;;;5068813;28;20040;-78
2023/05/21 09:15:34;;;;;;;6.03;1.65;;;22.20;99.90;;;;;;5067857;28;20421;-79
2023/05/21 09:18:00;;;;;;;0.30;0.20;;;22.20;99.90;;;;;;5066126;28;20036;-79
2023/05/21 09:20:27;;;;;;;2.25;1.45;;;22.30;99.90;;;;;;5065174;28;20052;-79
2023/05/21 09:22:54;;;;;;;0.30;0.30;;;21.70;99.90;;;;;;5065302;28;20088;-79
2023/05/21 09:25:26;;;;;;;0.90;0.55;;;21.20;95.80;;;;;;5063831;28;20044;-79
2023/05/21 09:27:54;;;;;;;1.00;0.68;;;20.90;94.70;;;;;;5066729;28;20075;-79
2023/05/21 09:30:20;;;;;;;1.65;1.25;;;20.70;98.40;;;;;;5068481;28;20487;-79
2023/05/21 09:32:53;;;;;;;0.25;0.20;;;20.60;97.60;;;;;;5065845;28;20117;-78
2023/05/21 09:35:19;;;;;;;0.70;0.55;;;20.80;99.90;;;;;;5067398;28;20048;-79
2023/05/21 09:37:47;;;;;;;0.65;0.32;;;20.80;98.80;;;;;;5069756;28;20106;-79
2023/05/21 09:40:15;;;;;;;0.77;0.70;;;21.00;99.00;;;;;;5070670;28;20052;-78
2023/05/21 09:42:44;;;;;;;0.43;0.20;;;21.10;98.50;;;;;;5071927;28;20044;-78
2023/05/21 09:45:10;;;;;;;0.45;0.32;;;21.20;98.90;;;;;;5069348;28;20051;-79
2023/05/21 09:47:43;;;;;;;0.50;0.45;;;20.90;94.50;;;;;;5070720;28;20094;-78
2023/05/21 09:50:16;;;;;;;6.10;4.38;;;20.90;93.60;;;;;;5072139;28;20048;-79
2023/05/21 09:52:42;;;;;;;2.00;1.80;;;21.40;99.90;;;;;;5069675;28;20127;-78
2023/05/21 09:55:11;;;;;;;2.40;0.85;;;21.30;98.90;;;;;;5068646;28;20502;-79
2023/05/21 09:57:45;;;;;;;0.50;0.50;;;21.10;95.60;;;;;;5071031;28;20453;-80
2023/05/21 10:00:23;;;;;;;0.00;0.00;;;21.60;99.90;;;;;;5062728;28;20055;-78
2023/05/21 10:02:54;;;;;;;0.08;0.08;;;21.80;99.90;;;;;;5063873;28;20053;-78
2023/05/21 10:05:24;;;;;;;0.22;0.20;;;22.00;99.90;;;;;;5063817;28;20499;-77
2023/05/21 10:07:52;;;;;;;1.45;0.80;;;21.70;96.80;;;;;;5063640;28;20522;-78
2023/05/21 10:10:21;;;;;;;0.55;0.55;;;21.90;99.30;;;;;;5064384;28;20129;-78
2023/05/21 10:13:02;;;;;;;0.17;0.17;;;21.80;95.10;;;;;;5064802;28;20048;-79
2023/05/21 10:15:33;;;;;;;0.38;0.32;;;21.70;94.60;;;;;;5063851;28;20040;-79
2023/05/21 10:18:00;;;;;;;3.85;0.55;;;21.80;97.40;;;;;;5063578;28;20508;-79
2023/05/21 10:20:26;;;;;;;0.15;0.15;;;21.80;98.60;;;;;;5063583;28;20056;-78
2023/05/21 10:22:52;;;;;;;1.65;0.55;;;21.90;97.90;;;;;;5064025;28;20041;-78
2023/05/21 10:25:19;;;;;;;0.08;0.08;;;22.10;99.90;;;;;;5064052;28;20094;-79
2023/05/21 10:27:45;;;;;;;0.70;0.50;;;23.20;99.90;;;;;;5064985;28;20052;-79
2023/05/21 10:30:11;;;;;;;1.60;1.10;;;22.90;99.90;;;;;;5081818;28;20028;-79
2023/05/21 10:32:39;;;;;;;0.35;0.35;;;23.10;99.90;;;;;;5084737;28;20071;-79
2023/05/21 10:35:06;;;;;;;2.03;0.73;;;23.20;99.90;;;;;;5064029;28;20040;-79
2023/05/21 10:37:31;;;;;;;0.55;0.40;;;23.40;99.90;;;;;;5072827;28;20051;-79
2023/05/21 10:39:57;;;;;;;2.53;0.75;;;23.60;99.90;;;;;;5089626;28;20037;-79
2023/05/21 10:42:32;;;;;;;5.13;1.08;;;23.60;99.90;;;;;;5089848;28;20062;-79
2023/05/21 10:45:10;;;;;;;1.45;0.32;;;23.70;99.90;;;;;;5089519;28;20100;-78
2023/05/21 10:48:15;;;;;;;0.43;0.43;;;23.70;99.90;;;;;;5090837;28;20084;-78
2023/05/21 10:50:47;;;;;;;0.17;0.17;;;24.10;99.90;;;;;;5093490;28;20044;-78
2023/05/21 10:53:27;;;;;;;1.15;0.88;;;23.90;99.90;;;;;;5091480;28;20024;-79
2023/05/21 10:56:10;;;;;;;15.50;0.65;;;23.60;98.30;;;;;;5092921;28;20032;-79
2023/05/21 10:59:01;;;;;;;0.38;0.20;;;23.80;98.60;;;;;;5091139;28;20044;-77
2023/05/21 11:01:35;;;;;;;1.55;0.75;;;23.80;99.60;;;;;;5071618;28;20485;-79
2023/05/21 11:04:02;;;;;;;1.55;0.85;;;23.70;99.10;;;;;;5070855;28;20470;-79
2023/05/21 11:06:28;;;;;;;1.45;1.02;;;23.50;98.00;;;;;;5067825;28;20048;-78
2023/05/21 11:08:54;;;;;;;0.28;0.28;;;23.60;98.70;;;;;;5067347;28;20090;-77
2023/05/21 11:11:49;;;;;;;1.13;0.85;;;23.70;97.80;;;;;;5067248;28;20052;-79
2023/05/21 11:14:38;;;;;;;0.98;0.68;;;23.90;99.90;;;;;;5067756;28;20421;-78
2023/05/21 11:17:34;;;;;;;1.30;0.85;;;23.70;97.60;;;;;;5066725;28;20411;-78
2023/05/21 11:20:06;;;;;;;0.57;0.43;;;23.90;99.90;;;;;;5067071;28;20115;-80
2023/05/21 11:22:34;;;;;;;0.30;0.30;;;24.40;99.90;;;;;;5070575;28;20045;-79
2023/05/21 11:25:01;;;;;;;0.30;0.30;;;24.60;99.90;;;;;;5066630;28;20082;-78
2023/05/21 11:27:37;;;;;;;0.20;0.20;;;24.60;99.90;;;;;;5066897;28;20048;-78
2023/05/21 11:30:07;;;;;;;0.70;0.57;;;24.60;99.90;;;;;;5068876;28;20048;-79
2023/05/21 11:33:02;;;;;;;0.60;0.35;;;24.40;99.90;;;;;;5070902;28;20063;-78
2023/05/21 11:35:28;;;;;;;20.30;0.73;;;24.50;99.90;;;;;;5067243;28;20388;-78
2023/05/21 11:37:54;;;;;;;0.25;0.25;;;24.20;99.90;;;;;;5066259;28;20047;-79
2023/05/21 11:40:24;;;;;;;3.50;1.00;;;24.70;99.90;;;;;;5049297;28;20055;-79
2023/05/21 11:42:55;;;;;;;1.95;0.93;;;25.00;99.90;;;;;;5064940;28;21053;-78
2023/05/21 11:45:23;;;;;;;4.60;0.88;;;25.30;99.90;;;;;;5071110;28;20083;-79
2023/05/21 11:47:50;;;;;;;0.57;0.57;;;25.20;99.90;;;;;;5071084;28;20067;-79
2023/05/21 11:50:17;;;;;;;1.67;1.42;;;25.90;99.90;;;;;;5066039;28;20072;-78
2023/05/21 11:52:44;;;;;;;1.75;1.08;;;25.70;99.90;;;;;;5066411;28;20044;-78
2023/05/21 11:55:10;;;;;;;2.08;0.68;;;26.00;99.90;;;;;;5065223;28;20506;-79
2023/05/21 11:57:36;;;;;;;0.17;0.17;;;26.20;99.90;;;;;;5066220;28;20525;-78
2023/05/21 12:00:12;;;;;;;0.57;0.57;;;26.70;99.90;;;;;;5066120;28;20063;-78
2023/05/21 12:02:42;;;;;;;2.95;0.88;;;26.50;99.90;;;;;;5065941;28;20060;-77
2023/05/21 12:05:08;;;;;;;4.38;0.65;;;26.60;99.90;;;;;;5066043;28;20044;-79
2023/05/21 12:07:34;;;;;;;0.75;0.57;;;26.70;99.90;;;;;;5065630;28;20224;-78
2023/05/21 12:10:00;;;;;;;0.77;0.60;;;26.50;99.90;;;;;;5065797;28;20380;-78
2023/05/21 12:12:26;;;;;;;3.22;1.13;;;26.70;99.90;;;;;;5066095;28;20432;-78
2023/05/21 12:14:53;;;;;;;0.40;0.38;;;26.10;99.90;;;;;;5065784;28;20070;-78
2023/05/21 12:17:24;;;;;;;16.65;1.20;;;25.60;99.90;;;;;;5066073;28;20078;-78
2023/05/21 12:19:51;;;;;;;0.95;0.85;;;25.70;99.90;;;;;;5064448;28;20044;-78
2023/05/21 12:22:17;;;;;;;0.47;0.43;;;26.70;99.90;;;;;;5064178;28;20406;-79
2023/05/21 12:24:43;;;;;;;4.47;1.13;;;27.00;99.90;;;;;;5065502;28;20057;-80
2023/05/21 12:27:12;;;;;;;1.17;0.98;;;27.20;99.90;;;;;;5066303;28;20058;-78
2023/05/21 12:29:39;;;;;;;0.93;0.80;;;27.00;99.90;;;;;;5064171;28;20055;-78
2023/05/21 12:32:07;;;;;;;0.75;0.65;;;27.10;99.90;;;;;;5064855;28;20055;-77
2023/05/21 12:34:55;;;;;;;1.77;1.02;;;26.90;99.90;;;;;;5065388;28;20052;-78
2023/05/21 12:37:24;;;;;;;1.45;0.80;;;26.40;99.90;;;;;;5065131;28;20049;-78
2023/05/21 12:39:54;;;;;;;9.65;2.85;;;26.50;99.90;;;;;;5048750;28;20048;-79
2023/05/21 12:42:38;;;;;;;0.90;0.80;;;26.40;99.90;;;;;;5065550;28;20369;-78
2023/05/21 12:45:08;;;;;;;1.67;1.10;;;26.50;99.90;;;;;;5065517;28;20394;-79
2023/05/21 12:47:34;;;;;;;2.22;1.25;;;26.90;99.90;;;;;;5065367;28;20133;-78
2023/05/21 12:50:01;;;;;;;0.68;0.65;;;27.20;99.90;;;;;;5065290;28;20040;-79
2023/05/21 12:52:27;;;;;;;2.67;1.50;;;27.30;99.90;;;;;;5065289;28;20048;-79